メインページ
METAR-TAF:

METAR-TAF

空港 :

イースター島, チリ

マタベリ国際空港

緯度: 27-09S, 経度: 109-25W, 海抜: 51m

現時点の気象観測

当レポートは35分前の03:00(UTC)に作成
東/南東の風 6kt
気温 18°C
湿度 77%
気圧 1026 hPa
視程10km以上
高度2000ftの雲は散在している
高度25000ftの雲は散在している

METAR: SCIP 260300Z 11006KT 9999 SCT020 SCT250 18/14 Q1026 NOSIG

時間: 21:35 (03:35 UTC)

予報

当レポートは5時間4分前の22:31(UTC)に作成
予報は26日の 00時(UTC)から 27日の 00時(UTC)まで有効
東/北東の風 8kt
視程10km以上
高度2000ftの雲は散在している
高度4000ftの千切れ雲あり
高度25000ftの千切れ雲あり
26日の 03時(UTC)から 26日の 05時(UTC)まで徐々に
の風 3kt
高度2000ftの雲は散在している
26日の 11時(UTC)から 26日の 15時(UTC)まで一時的に
変向風 2kt
視程: 7000m
高度1600ftの雲は散在している
高度4000ftの千切れ雲あり
弱いにわか雨
26日の 16時(UTC)から 26日の 18時(UTC)まで徐々に
北東の風 4kt
高度2000ftの雲は散在している
高度25000ftの雲は散在している
26日の 19時(UTC)から 26日の 24時(UTC)まで一時的に
変向風 3kt
視程: 7000m
高度2000ftの千切れ雲あり
弱いにわか雨

TAF: SCIP 252231Z 2600/2700 06008KT 9999 SCT020 BKN040 BKN250 TN17/ 2610Z TX25/2620Z BECMG 2603/2605 10003KT SCT020 TEMPO 2611/2615 VRB02KT 7000 -SHRA SCT016 BKN040 BECMG 2616/2618 04004KT SCT020 SCT250 TEMPO 2619/2624 VRB03KT 7000 -SHRA BKN020

4,000以上の空港の気象観測と天気予報(METAR報とTAF報)

利用可能な観測所は地図上に黄色い丸と赤い丸で示す。

丸の上にカーソルを重ねると観測所名を参照できる。

次にクリックすると気象観測と天気予報を参照できる。

マップの切り替え:黒色「×」印の緑ボタンをクリックして拡大、「-」印の緑ボタンをクリックして縮小、緑色の三角印をクリックして隣りの地図に切り替え


METAR-TAF: